createdAt,value
2023-03-21T00:01:04.967Z,68.52
2023-03-21T00:03:36.769Z,68.57
2023-03-21T00:06:12.412Z,68.43
2023-03-21T00:08:44.824Z,68.61
2023-03-21T00:11:17.371Z,68.42
2023-03-21T00:13:49.721Z,68.56
2023-03-21T00:16:30.982Z,68.48
2023-03-21T00:19:06.485Z,68.49
2023-03-21T00:21:52.333Z,68.63
2023-03-21T00:24:31.573Z,68.51
2023-03-21T00:29:57.041Z,68.64
2023-03-21T00:32:29.606Z,68.54
2023-03-21T00:35:29.510Z,68.54
2023-03-21T00:37:54.057Z,68.61
2023-03-21T00:40:32.926Z,68.80
2023-03-21T00:43:07.587Z,68.74
2023-03-21T00:45:40.059Z,68.62
2023-03-21T00:48:13.670Z,68.74
2023-03-21T00:50:48.016Z,68.83
2023-03-21T00:53:20.341Z,68.93
2023-03-21T00:55:53.117Z,68.75
2023-03-21T00:58:26.357Z,68.74
2023-03-21T01:00:58.767Z,68.85
2023-03-21T01:03:31.287Z,68.94
2023-03-21T01:06:05.076Z,68.97
2023-03-21T01:08:54.779Z,68.87
2023-03-21T01:11:29.160Z,68.90
2023-03-21T01:14:18.738Z,69.01
2023-03-21T01:16:55.007Z,68.99
2023-03-21T01:19:44.176Z,69.06
2023-03-21T01:22:21.290Z,69.00
2023-03-21T01:25:00.418Z,69.02
2023-03-21T01:27:33.347Z,69.10
2023-03-21T01:30:17.343Z,69.18
2023-03-21T01:32:51.789Z,68.97
2023-03-21T01:35:24.234Z,69.12
2023-03-21T01:37:57.150Z,69.03
2023-03-21T01:40:31.598Z,69.26
2023-03-21T01:43:23.657Z,69.21
2023-03-21T01:46:27.358Z,69.30
2023-03-21T01:49:34.471Z,69.23
2023-03-21T01:52:40.779Z,69.23
2023-03-21T01:55:18.157Z,69.22
2023-03-21T01:58:06.498Z,69.29
2023-03-21T02:00:48.058Z,69.14
2023-03-21T02:03:36.181Z,69.39
2023-03-21T02:06:30.585Z,69.29
2023-03-21T02:09:10.636Z,69.26
2023-03-21T02:11:46.592Z,69.37
2023-03-21T02:14:28.937Z,69.34
2023-03-21T02:17:21.208Z,69.37
2023-03-21T02:20:36.785Z,69.39
2023-03-21T02:23:50.914Z,69.34
2023-03-21T02:26:42.428Z,69.43
2023-03-21T02:29:49.214Z,69.38
2023-03-21T02:32:38.282Z,69.48
2023-03-21T02:35:30.154Z,69.44
2023-03-21T02:38:06.418Z,69.61
2023-03-21T02:40:44.909Z,69.55
2023-03-21T02:43:24.893Z,69.50
2023-03-21T02:46:03.354Z,69.43
2023-03-21T02:48:50.199Z,69.42
2023-03-21T02:51:26.710Z,69.52
2023-03-21T02:54:26.454Z,69.49
2023-03-21T02:57:01.114Z,69.68
2023-03-21T02:59:39.397Z,69.70
2023-03-21T03:02:16.892Z,69.61
2023-03-21T03:04:49.711Z,69.67
2023-03-21T03:07:38.881Z,69.60
2023-03-21T03:10:29.454Z,69.54
2023-03-21T03:13:14.308Z,69.79
2023-03-21T03:15:55.154Z,69.71
2023-03-21T03:18:36.917Z,69.71
2023-03-21T03:21:17.186Z,69.65
2023-03-21T03:23:55.028Z,69.67
2023-03-21T03:26:34.332Z,69.62
2023-03-21T03:29:11.125Z,69.73
2023-03-21T03:31:48.709Z,69.71
2023-03-21T03:34:26.411Z,69.86
2023-03-21T03:37:02.747Z,69.84
2023-03-21T03:39:41.529Z,69.91
2023-03-21T03:42:28.180Z,69.88
2023-03-21T03:45:12.804Z,69.98
2023-03-21T03:47:57.054Z,69.97
2023-03-21T03:50:36.522Z,69.90
2023-03-21T03:53:18.845Z,69.94
2023-03-21T03:55:52.957Z,69.80
2023-03-21T03:58:39.460Z,69.84
2023-03-21T04:01:17.730Z,69.89
2023-03-21T04:03:56.398Z,69.90
2023-03-21T04:06:36.167Z,69.89
2023-03-21T04:09:19.698Z,69.99
2023-03-21T04:11:53.546Z,69.86
2023-03-21T04:14:35.617Z,69.96
2023-03-21T04:17:16.708Z,70.07
2023-03-21T04:19:55.492Z,70.09
2023-03-21T04:22:31.290Z,69.95
2023-03-21T04:25:05.414Z,70.06
2023-03-21T04:27:38.770Z,69.99
2023-03-21T04:30:34.281Z,70.17
2023-03-21T04:33:15.493Z,70.17
2023-03-21T04:35:56.407Z,70.17
2023-03-21T04:38:30.912Z,70.30
2023-03-21T04:41:06.649Z,70.23
2023-03-21T04:43:38.990Z,70.13
2023-03-21T04:46:11.426Z,70.34
2023-03-21T04:48:43.770Z,70.14
2023-03-21T04:51:16.195Z,70.23
2023-03-21T04:53:49.611Z,70.27
2023-03-21T04:56:22.005Z,70.27
2023-03-21T04:58:54.302Z,70.30
2023-03-21T05:01:30.819Z,70.28
2023-03-21T05:04:04.931Z,70.09
2023-03-21T05:06:39.664Z,70.38
2023-03-21T05:09:12.758Z,70.38
2023-03-21T05:11:45.590Z,70.46
2023-03-21T05:14:21.575Z,70.45
2023-03-21T05:16:56.435Z,70.39
2023-03-21T05:19:35.394Z,70.56
2023-03-21T05:22:10.964Z,70.49
2023-03-21T05:24:43.990Z,70.62
2023-03-21T05:27:36.539Z,70.57
2023-03-21T05:30:16.842Z,70.46
2023-03-21T05:32:51.145Z,70.66
2023-03-21T05:35:26.739Z,70.66
2023-03-21T05:38:00.376Z,70.66
2023-03-21T05:40:35.785Z,70.78
2023-03-21T05:43:08.560Z,70.52
2023-03-21T05:45:41.482Z,70.91
2023-03-21T05:48:13.948Z,70.77
2023-03-21T05:51:01.932Z,70.76
2023-03-21T05:53:34.352Z,70.88
2023-03-21T05:56:09.810Z,70.72
2023-03-21T05:59:00.668Z,70.85
2023-03-21T06:01:33.533Z,70.77
2023-03-21T06:04:14.419Z,70.94
2023-03-21T06:06:46.754Z,70.88
2023-03-21T06:09:19.393Z,70.80
2023-03-21T06:11:58.524Z,70.77
2023-03-21T06:14:33.731Z,71.08
2023-03-21T06:17:21.282Z,70.93
2023-03-21T06:19:58.540Z,70.96
2023-03-21T06:22:38.379Z,70.96
2023-03-21T06:25:13.064Z,71.06
2023-03-21T06:27:45.891Z,70.97
2023-03-21T06:30:19.955Z,71.10
2023-03-21T06:33:11.028Z,71.12
2023-03-21T06:35:43.549Z,71.05
2023-03-21T06:38:16.294Z,71.07
2023-03-21T06:40:49.796Z,71.14
2023-03-21T06:43:22.390Z,71.10
2023-03-21T06:45:55.388Z,71.21
2023-03-21T06:48:28.371Z,71.32
2023-03-21T06:51:00.922Z,71.36
2023-03-21T06:53:36.028Z,71.28
2023-03-21T06:56:26.055Z,71.30
2023-03-21T06:58:58.457Z,71.20
2023-03-21T07:01:52.135Z,71.35
2023-03-21T07:04:24.627Z,71.29
2023-03-21T07:06:57.237Z,71.22
2023-03-21T07:09:30.059Z,71.25
2023-03-21T07:12:06.657Z,71.43
2023-03-21T07:14:58.931Z,71.17
2023-03-21T07:17:32.383Z,71.28
2023-03-21T07:20:07.388Z,71.29
2023-03-21T07:22:40.064Z,71.36
2023-03-21T07:25:13.524Z,71.36
2023-03-21T07:27:46.489Z,71.31
2023-03-21T07:30:19.564Z,71.35
2023-03-21T07:32:53.502Z,71.23
2023-03-21T07:35:25.860Z,71.35
2023-03-21T07:37:58.737Z,71.20
2023-03-21T07:40:31.120Z,71.32
2023-03-21T07:43:03.679Z,71.25
2023-03-21T07:45:39.612Z,71.21
2023-03-21T07:48:14.080Z,71.13
2023-03-21T07:50:46.728Z,71.23
2023-03-21T07:53:19.367Z,71.14
2023-03-21T07:55:55.805Z,71.27
2023-03-21T07:58:28.680Z,71.40
2023-03-21T08:01:02.331Z,71.12
2023-03-21T08:03:34.986Z,71.20
2023-03-21T08:06:08.383Z,71.17
2023-03-21T08:08:41.167Z,71.25
2023-03-21T08:11:14.727Z,71.14
2023-03-21T08:13:47.063Z,71.19
2023-03-21T08:16:19.440Z,71.15
2023-03-21T08:18:51.781Z,71.27
2023-03-21T08:21:24.147Z,71.20
2023-03-21T08:23:56.932Z,71.14
2023-03-21T08:26:29.235Z,71.16
2023-03-21T08:29:02.210Z,71.32
2023-03-21T08:31:34.587Z,71.31
2023-03-21T08:34:07.675Z,71.35
2023-03-21T08:36:40.722Z,71.41
2023-03-21T08:39:13.136Z,71.42
2023-03-21T08:41:45.472Z,71.46
2023-03-21T08:44:18.154Z,71.11
2023-03-21T08:46:50.543Z,71.21
2023-03-21T08:49:22.995Z,71.28
2023-03-21T08:51:58.386Z,71.23
2023-03-21T08:54:30.981Z,71.25
2023-03-21T08:57:03.752Z,71.00
2023-03-21T08:59:36.275Z,70.99
2023-03-21T09:02:08.881Z,71.01
2023-03-21T09:04:41.239Z,70.99
2023-03-21T09:07:15.115Z,71.00
2023-03-21T09:09:50.907Z,70.75
2023-03-21T09:12:30.703Z,70.89
2023-03-21T09:15:04.877Z,70.91
2023-03-21T09:17:44.175Z,70.97
2023-03-21T09:20:18.892Z,70.90
2023-03-21T09:22:52.807Z,70.71
2023-03-21T09:25:25.520Z,70.80
2023-03-21T09:27:58.220Z,70.51
2023-03-21T09:30:31.505Z,70.52
2023-03-21T09:33:06.619Z,70.17
2023-03-21T09:35:39.282Z,69.80
2023-03-21T09:38:11.802Z,69.83
2023-03-21T09:40:58.341Z,69.64
2023-03-21T09:43:43.997Z,69.16
2023-03-21T09:46:26.031Z,69.32
2023-03-21T09:49:01.117Z,69.32
2023-03-21T09:51:38.120Z,69.24
2023-03-21T09:54:19.594Z,69.23
2023-03-21T09:56:54.770Z,69.17
2023-03-21T09:59:33.509Z,69.18
2023-03-21T10:02:20.434Z,69.33
2023-03-21T10:04:53.092Z,69.07
2023-03-21T10:07:28.408Z,68.69
2023-03-21T10:10:04.488Z,68.41
2023-03-21T10:12:36.933Z,68.26
2023-03-21T10:15:14.744Z,68.18
2023-03-21T10:17:53.570Z,68.39
2023-03-21T10:20:27.812Z,68.55
2023-03-21T10:23:04.267Z,68.66
2023-03-21T10:25:39.804Z,68.04
2023-03-21T10:28:18.113Z,67.98
2023-03-21T10:30:52.730Z,67.75
2023-03-21T10:33:28.848Z,67.58
2023-03-21T10:36:03.934Z,67.82
2023-03-21T10:38:39.690Z,67.57
2023-03-21T10:41:13.258Z,67.46
2023-03-21T10:43:46.084Z,67.06
2023-03-21T10:46:23.829Z,67.13
2023-03-21T10:48:56.930Z,67.11
2023-03-21T10:51:32.990Z,67.22
2023-03-21T10:54:09.841Z,66.80
2023-03-21T10:56:49.449Z,66.87
2023-03-21T10:59:24.391Z,66.80
2023-03-21T11:01:58.996Z,66.91
2023-03-21T11:04:32.103Z,66.99
2023-03-21T11:07:08.290Z,66.89
2023-03-21T11:09:52.519Z,66.47
2023-03-21T11:12:31.936Z,66.37
2023-03-21T11:15:26.355Z,66.46
2023-03-21T11:17:58.967Z,66.24
2023-03-21T11:20:34.368Z,66.24
2023-03-21T11:23:07.860Z,66.18
2023-03-21T11:25:43.192Z,66.09
2023-03-21T11:28:19.505Z,65.75
2023-03-21T11:30:57.877Z,65.63
2023-03-21T11:33:34.433Z,65.76
2023-03-21T11:36:26.263Z,65.00
2023-03-21T11:39:01.937Z,65.43
2023-03-21T11:41:35.488Z,65.25
2023-03-21T11:44:08.205Z,65.29
2023-03-21T11:46:43.863Z,65.39
2023-03-21T11:49:16.235Z,65.38
2023-03-21T11:51:55.255Z,64.82
2023-03-21T11:54:35.327Z,63.95
2023-03-21T11:57:19.860Z,63.73
2023-03-21T11:59:58.608Z,64.06
2023-03-21T12:02:58.477Z,64.10
2023-03-21T12:05:35.859Z,63.94
2023-03-21T12:08:19.962Z,63.64
2023-03-21T12:10:57.643Z,63.80
2023-03-21T12:13:45.048Z,63.59
2023-03-21T12:16:32.359Z,63.56
2023-03-21T12:19:34.151Z,63.29
2023-03-21T12:22:18.383Z,63.14
2023-03-21T12:24:55.346Z,63.11
2023-03-21T12:27:38.294Z,63.01
2023-03-21T12:30:30.290Z,62.80
2023-03-21T12:33:15.476Z,62.97
2023-03-21T12:36:00.580Z,62.84
2023-03-21T12:38:40.707Z,62.44
2023-03-21T12:41:25.555Z,62.49
2023-03-21T12:44:04.196Z,62.39
2023-03-21T12:46:42.213Z,62.25
2023-03-21T12:49:19.922Z,62.26
2023-03-21T12:51:56.828Z,62.15
2023-03-21T12:54:33.657Z,61.99
2023-03-21T12:57:11.732Z,61.99
2023-03-21T12:59:50.530Z,61.81
2023-03-21T13:02:27.888Z,61.73
2023-03-21T13:05:08.200Z,61.55
2023-03-21T13:07:44.447Z,61.37
2023-03-21T13:10:21.073Z,61.55
2023-03-21T13:13:03.441Z,61.37
2023-03-21T13:15:56.588Z,61.43
2023-03-21T13:18:50.289Z,61.31
2023-03-21T13:21:33.513Z,60.91
2023-03-21T13:24:18.784Z,60.72
2023-03-21T13:26:56.779Z,60.79
2023-03-21T13:29:32.284Z,60.49
2023-03-21T13:32:17.410Z,59.87
2023-03-21T13:34:54.975Z,59.82
2023-03-21T13:37:31.747Z,59.94
2023-03-21T13:40:11.006Z,60.36
2023-03-21T13:42:51.699Z,60.31
2023-03-21T13:45:31.908Z,60.15
2023-03-21T13:48:30.584Z,60.28
2023-03-21T13:51:05.829Z,60.03
2023-03-21T13:53:39.792Z,59.77
2023-03-21T13:56:24.042Z,59.50
2023-03-21T13:59:04.197Z,59.71
2023-03-21T14:01:42.626Z,59.75
2023-03-21T14:04:20.831Z,59.55
2023-03-21T14:07:01.185Z,59.39
2023-03-21T14:09:39.170Z,59.49
2023-03-21T14:12:16.044Z,59.33
2023-03-21T14:14:51.867Z,59.32
2023-03-21T14:17:29.568Z,59.24
2023-03-21T14:20:12.048Z,58.97
2023-03-21T14:22:47.749Z,58.77
2023-03-21T14:25:21.740Z,58.76
2023-03-21T14:27:57.163Z,58.35
2023-03-21T14:30:33.493Z,58.56
2023-03-21T14:33:09.732Z,57.93
2023-03-21T14:35:43.469Z,57.97
2023-03-21T14:38:24.082Z,57.88
2023-03-21T14:40:59.050Z,57.87
2023-03-21T14:43:34.257Z,57.97
2023-03-21T14:46:07.323Z,57.61
2023-03-21T14:48:39.679Z,57.66
2023-03-21T14:51:14.181Z,57.46
2023-03-21T14:53:47.502Z,57.60
2023-03-21T14:56:25.323Z,57.53
2023-03-21T14:58:57.848Z,57.57
2023-03-21T15:01:34.955Z,57.16
2023-03-21T15:04:09.411Z,57.16
2023-03-21T15:06:57.903Z,57.19
2023-03-21T15:09:33.674Z,57.14
2023-03-21T15:12:12.447Z,57.28
2023-03-21T15:14:45.084Z,57.31
2023-03-21T15:17:18.010Z,56.98
2023-03-21T15:19:50.582Z,57.09
2023-03-21T15:22:30.775Z,57.01
2023-03-21T15:25:06.329Z,56.97
2023-03-21T15:27:42.455Z,57.09
2023-03-21T15:30:23.919Z,57.13
2023-03-21T15:32:56.901Z,56.90
2023-03-21T15:35:33.317Z,56.81
2023-03-21T15:38:06.784Z,56.92
2023-03-21T15:40:39.419Z,56.85
2023-03-21T15:43:19.022Z,56.93
2023-03-21T15:45:54.848Z,56.85
2023-03-21T15:48:29.126Z,56.76
2023-03-21T15:51:06.690Z,56.92
2023-03-21T15:53:44.190Z,56.98
2023-03-21T15:56:17.250Z,56.96
2023-03-21T15:58:53.528Z,56.90
2023-03-21T16:01:26.669Z,56.93
2023-03-21T16:04:05.484Z,57.11
2023-03-21T16:06:40.200Z,57.04
2023-03-21T16:09:22.171Z,56.95
2023-03-21T16:11:56.062Z,57.00
2023-03-21T16:14:29.329Z,56.84
2023-03-21T16:17:01.732Z,56.88
2023-03-21T16:19:34.447Z,56.92
2023-03-21T16:22:12.125Z,57.10
2023-03-21T16:24:44.407Z,57.16
2023-03-21T16:27:18.245Z,57.05
2023-03-21T16:29:50.519Z,57.19
2023-03-21T16:32:22.827Z,57.11
2023-03-21T16:34:55.110Z,57.11
2023-03-21T16:37:27.429Z,57.24
2023-03-21T16:39:59.903Z,57.33
2023-03-21T16:42:32.291Z,57.39
2023-03-21T16:45:04.817Z,57.39
2023-03-21T16:47:37.590Z,57.27
2023-03-21T16:50:25.142Z,57.47
2023-03-21T16:52:58.416Z,57.68
2023-03-21T16:55:33.636Z,57.55
2023-03-21T16:58:06.541Z,57.45
2023-03-21T17:00:40.409Z,57.60
2023-03-21T17:03:19.122Z,57.55
2023-03-21T17:05:51.648Z,57.61
2023-03-21T17:08:24.937Z,57.82
2023-03-21T17:10:59.185Z,57.57
2023-03-21T17:13:31.506Z,57.63
2023-03-21T17:16:03.826Z,57.69
2023-03-21T17:18:36.342Z,57.71
2023-03-21T17:21:15.208Z,57.74
2023-03-21T17:23:47.981Z,57.84
2023-03-21T17:26:23.262Z,57.87
2023-03-21T17:28:56.932Z,57.78
2023-03-21T17:31:33.964Z,57.85
2023-03-21T17:34:07.258Z,58.06
2023-03-21T17:36:42.833Z,58.18
2023-03-21T17:39:19.542Z,58.20
2023-03-21T17:41:52.650Z,58.21
2023-03-21T17:44:25.020Z,58.07
2023-03-21T17:46:58.322Z,58.06
2023-03-21T17:49:31.095Z,58.16
2023-03-21T17:52:03.486Z,58.32
2023-03-21T17:54:35.914Z,58.27
2023-03-21T17:57:08.191Z,58.37
2023-03-21T17:59:40.659Z,58.29
2023-03-21T18:02:13.006Z,58.46
2023-03-21T18:04:45.627Z,58.46
2023-03-21T18:07:29.652Z,58.34
2023-03-21T18:10:16.480Z,58.44
2023-03-21T18:12:49.524Z,58.72
2023-03-21T18:15:23.695Z,58.77
2023-03-21T18:17:56.534Z,58.73
2023-03-21T18:20:50.349Z,58.82
2023-03-21T18:23:22.170Z,58.75
2023-03-21T18:25:54.938Z,58.92
2023-03-21T18:28:27.330Z,59.00
2023-03-21T18:31:19.318Z,59.07
2023-03-21T18:33:52.782Z,58.97
2023-03-21T18:36:28.245Z,59.12
2023-03-21T18:39:03.424Z,59.04
2023-03-21T18:41:36.304Z,59.18
2023-03-21T18:44:19.775Z,59.17
2023-03-21T18:46:53.639Z,59.37
2023-03-21T18:50:06.039Z,59.28
2023-03-21T18:52:18.902Z,59.48
2023-03-21T18:54:51.306Z,59.39
2023-03-21T18:57:39.443Z,59.36
2023-03-21T19:00:17.579Z,59.56
2023-03-21T19:03:02.280Z,59.30
2023-03-21T19:05:43.076Z,59.58
2023-03-21T19:08:15.458Z,59.63
2023-03-21T19:10:48.727Z,59.61
2023-03-21T19:13:21.400Z,59.70
2023-03-21T19:15:54.167Z,59.65
2023-03-21T19:18:44.964Z,59.84
2023-03-21T19:21:19.243Z,59.73
2023-03-21T19:26:47.591Z,59.82
2023-03-21T19:29:20.174Z,59.92
2023-03-21T19:31:53.212Z,60.03
2023-03-21T19:34:26.648Z,59.96
2023-03-21T19:36:59.221Z,60.03
2023-03-21T19:39:31.992Z,60.10
2023-03-21T19:42:16.016Z,60.06
2023-03-21T19:44:49.682Z,60.32
2023-03-21T19:47:22.320Z,60.29
2023-03-21T19:50:40.764Z,60.22
2023-03-21T19:52:47.825Z,60.20
2023-03-21T19:55:20.423Z,60.50
2023-03-21T19:57:53.734Z,60.42
2023-03-21T20:00:26.357Z,60.48
2023-03-21T20:02:58.948Z,60.43
2023-03-21T20:05:31.398Z,60.46
2023-03-21T20:08:04.135Z,60.52
2023-03-21T20:10:36.990Z,60.59
2023-03-21T20:13:09.551Z,60.64
2023-03-21T20:15:47.898Z,60.64
2023-03-21T20:18:24.046Z,60.66
2023-03-21T20:20:57.406Z,60.70
2023-03-21T20:23:29.683Z,60.78
2023-03-21T20:26:02.430Z,60.80
2023-03-21T20:28:37.860Z,60.69
2023-03-21T20:31:10.671Z,60.89
2023-03-21T20:33:43.645Z,60.88
2023-03-21T20:39:08.419Z,60.90
2023-03-21T20:41:41.014Z,61.03
2023-03-21T20:44:44.877Z,61.08
2023-03-21T20:47:06.640Z,61.13
2023-03-21T20:49:40.286Z,61.19
2023-03-21T20:52:52.145Z,61.18
2023-03-21T20:55:06.921Z,61.17
2023-03-21T20:57:40.786Z,61.18
2023-03-21T21:00:17.324Z,61.25
2023-03-21T21:02:51.080Z,61.22
2023-03-21T21:05:28.662Z,61.43
2023-03-21T21:08:03.031Z,61.33
2023-03-21T21:10:52.406Z,61.45
2023-03-21T21:13:27.973Z,61.42
2023-03-21T21:16:00.449Z,61.48
2023-03-21T21:18:33.035Z,61.56
2023-03-21T21:21:06.917Z,61.61
2023-03-21T21:23:43.409Z,61.65
2023-03-21T21:26:16.092Z,61.61
2023-03-21T21:28:48.452Z,61.60
2023-03-21T21:31:21.655Z,61.80
2023-03-21T21:33:54.216Z,61.80
2023-03-21T21:36:26.676Z,61.84
2023-03-21T21:39:01.026Z,61.83
2023-03-21T21:41:33.343Z,61.83
2023-03-21T21:44:06.167Z,61.83
2023-03-21T21:46:38.930Z,61.94
2023-03-21T21:49:11.276Z,61.97
2023-03-21T21:51:47.713Z,62.09
2023-03-21T21:54:20.273Z,61.96
2023-03-21T21:56:54.218Z,62.18
2023-03-21T21:59:26.867Z,62.04
2023-03-21T22:01:59.728Z,62.20
2023-03-21T22:04:32.602Z,62.22
2023-03-21T22:07:06.117Z,62.23
2023-03-21T22:09:39.111Z,62.17
2023-03-21T22:12:11.819Z,62.30
2023-03-21T22:14:44.056Z,62.30
2023-03-21T22:17:16.414Z,62.44
2023-03-21T22:20:04.295Z,62.47
2023-03-21T22:22:38.326Z,62.45
2023-03-21T22:25:13.904Z,62.47
2023-03-21T22:27:46.483Z,62.37
2023-03-21T22:30:19.825Z,62.52
2023-03-21T22:33:08.154Z,62.48
2023-03-21T22:35:41.674Z,62.40
2023-03-21T22:38:18.026Z,62.59
2023-03-21T22:40:56.072Z,62.75
2023-03-21T22:43:29.330Z,62.74
2023-03-21T22:46:02.567Z,62.74
2023-03-21T22:48:35.558Z,62.77
2023-03-21T22:51:08.783Z,62.85
2023-03-21T22:53:41.158Z,62.87
2023-03-21T22:56:13.954Z,62.95
2023-03-21T22:58:46.182Z,62.98
2023-03-21T23:01:18.524Z,63.03
2023-03-21T23:03:51.438Z,63.06
2023-03-21T23:06:23.752Z,63.14
2023-03-21T23:08:56.092Z,63.11
2023-03-21T23:11:28.721Z,63.14
2023-03-21T23:14:07.569Z,63.16
2023-03-21T23:16:41.066Z,63.23
2023-03-21T23:19:13.658Z,63.28
2023-03-21T23:21:46.955Z,63.31
2023-03-21T23:24:19.372Z,63.32
2023-03-21T23:26:52.028Z,63.33
2023-03-21T23:29:24.433Z,63.36
2023-03-21T23:31:56.807Z,63.45
2023-03-21T23:34:29.429Z,63.45
2023-03-21T23:37:01.786Z,63.46
2023-03-21T23:39:34.519Z,63.60
2023-03-21T23:42:07.132Z,63.49
2023-03-21T23:44:39.646Z,63.60
2023-03-21T23:47:11.933Z,63.55
2023-03-21T23:49:44.883Z,63.56
2023-03-21T23:52:17.511Z,63.67
2023-03-21T23:54:49.860Z,63.66
2023-03-21T23:57:22.250Z,63.69
2023-03-21T23:59:56.593Z,63.71
